sensor_id;sensor_type;location;lat;lon;timestamp;pressure;altitude;pressure_sealevel;temperature;humidity
51229;BME280;37304;52.216;6.874;2023-05-12T00:03:02;101315.00;;;11.53;100.00
51229;BME280;37304;52.216;6.874;2023-05-12T00:08:03;101311.50;;;11.54;100.00
51229;BME280;37304;52.216;6.874;2023-05-12T00:13:04;101308.88;;;11.57;100.00
51229;BME280;37304;52.216;6.874;2023-05-12T00:18:05;101304.50;;;11.62;100.00
51229;BME280;37304;52.216;6.874;2023-05-12T00:23:05;101303.63;;;11.62;100.00
51229;BME280;37304;52.216;6.874;2023-05-12T00:28:05;101295.84;;;11.59;100.00
51229;BME280;37304;52.216;6.874;2023-05-12T00:33:06;101306.22;;;11.63;100.00
51229;BME280;37304;52.216;6.874;2023-05-12T00:38:06;101302.72;;;11.64;100.00
51229;BME280;37304;52.216;6.874;2023-05-12T00:43:06;101301.94;;;11.58;100.00
51229;BME280;37304;52.216;6.874;2023-05-12T00:48:07;101301.84;;;11.65;100.00
51229;BME280;37304;52.216;6.874;2023-05-12T00:53:08;101295.81;;;11.62;100.00
51229;BME280;37304;52.216;6.874;2023-05-12T00:58:08;101288.75;;;11.70;100.00
51229;BME280;37304;52.216;6.874;2023-05-12T01:03:09;101292.22;;;11.71;100.00
51229;BME280;37304;52.216;6.874;2023-05-12T01:08:10;101290.53;;;11.67;100.00
51229;BME280;37304;52.216;6.874;2023-05-12T01:13:10;101289.59;;;11.72;100.00
51229;BME280;37304;52.216;6.874;2023-05-12T01:18:12;101290.53;;;11.67;100.00
51229;BME280;37304;52.216;6.874;2023-05-12T01:23:17;101292.19;;;11.74;100.00
51229;BME280;37304;52.216;6.874;2023-05-12T01:28:18;101297.44;;;11.71;100.00
51229;BME280;37304;52.216;6.874;2023-05-12T01:33:19;101300.03;;;11.71;100.00
51229;BME280;37304;52.216;6.874;2023-05-12T01:38:20;101298.19;;;11.77;100.00
51229;BME280;37304;52.216;6.874;2023-05-12T01:43:20;101302.50;;;11.80;100.00
51229;BME280;37304;52.216;6.874;2023-05-12T01:48:20;101301.66;;;11.78;100.00
51229;BME280;37304;52.216;6.874;2023-05-12T01:53:21;101306.81;;;11.81;100.00
51229;BME280;37304;52.216;6.874;2023-05-12T01:58:21;101297.16;;;11.89;100.00
51229;BME280;37304;52.216;6.874;2023-05-12T02:03:21;101307.63;;;11.86;100.00
51229;BME280;37304;52.216;6.874;2023-05-12T02:08:22;101311.91;;;11.89;100.00
51229;BME280;37304;52.216;6.874;2023-05-12T02:13:22;101307.53;;;11.92;100.00
51229;BME280;37304;52.216;6.874;2023-05-12T02:18:22;101303.19;;;11.93;100.00
51229;BME280;37304;52.216;6.874;2023-05-12T02:23:23;101305.75;;;11.94;100.00
51229;BME280;37304;52.216;6.874;2023-05-12T02:28:23;101304.88;;;11.95;100.00
51229;BME280;37304;52.216;6.874;2023-05-12T02:33:24;101300.59;;;11.91;100.00
51229;BME280;37304;52.216;6.874;2023-05-12T02:38:24;101290.09;;;11.98;100.00
51229;BME280;37304;52.216;6.874;2023-05-12T02:43:24;101301.34;;;12.00;100.00
51229;BME280;37304;52.216;6.874;2023-05-12T02:48:25;101296.19;;;11.97;100.00
51229;BME280;37304;52.216;6.874;2023-05-12T02:53:25;101302.25;;;12.00;100.00
51229;BME280;37304;52.216;6.874;2023-05-12T02:58:26;101300.50;;;11.98;100.00
51229;BME280;37304;52.216;6.874;2023-05-12T03:03:27;101286.56;;;12.02;100.00
51229;BME280;37304;52.216;6.874;2023-05-12T03:08:27;101299.59;;;12.02;100.00
51229;BME280;37304;52.216;6.874;2023-05-12T03:13:27;101296.94;;;12.05;100.00
51229;BME280;37304;52.216;6.874;2023-05-12T03:18:28;101301.25;;;12.07;100.00
51229;BME280;37304;52.216;6.874;2023-05-12T03:23:28;101292.63;;;12.05;100.00
51229;BME280;37304;52.216;6.874;2023-05-12T03:28:29;101301.22;;;12.11;100.00
51229;BME280;37304;52.216;6.874;2023-05-12T03:33:31;101296.06;;;12.06;100.00
51229;BME280;37304;52.216;6.874;2023-05-12T03:38:31;101293.47;;;12.06;100.00
51229;BME280;37304;52.216;6.874;2023-05-12T03:43:32;101300.47;;;12.02;100.00
51229;BME280;37304;52.216;6.874;2023-05-12T03:48:32;101301.31;;;12.03;100.00
51229;BME280;37304;52.216;6.874;2023-05-12T03:53:33;101305.69;;;12.01;100.00
51229;BME280;37304;52.216;6.874;2023-05-12T03:58:33;101305.69;;;12.01;100.00
51229;BME280;37304;52.216;6.874;2023-05-12T04:03:33;101310.03;;;11.99;100.00
51229;BME280;37304;52.216;6.874;2023-05-12T04:08:34;101325.72;;;11.95;100.00
51229;BME280;37304;52.216;6.874;2023-05-12T04:13:34;101323.97;;;11.96;100.00
51229;BME280;37304;52.216;6.874;2023-05-12T04:18:35;101330.03;;;11.97;100.00
51229;BME280;37304;52.216;6.874;2023-05-12T04:23:35;101338.75;;;11.95;100.00
51229;BME280;37304;52.216;6.874;2023-05-12T04:28:36;101349.97;;;12.01;100.00
51229;BME280;37304;52.216;6.874;2023-05-12T04:33:36;101350.84;;;12.01;100.00
51229;BME280;37304;52.216;6.874;2023-05-12T04:38:36;101356.91;;;12.02;100.00
51229;BME280;37304;52.216;6.874;2023-05-12T04:43:37;101361.22;;;12.04;100.00
51229;BME280;37304;52.216;6.874;2023-05-12T04:48:37;101355.13;;;12.05;100.00
51229;BME280;37304;52.216;6.874;2023-05-12T04:53:41;101371.59;;;12.07;100.00
51229;BME280;37304;52.216;6.874;2023-05-12T04:58:41;101377.56;;;12.14;100.00
51229;BME280;37304;52.216;6.874;2023-05-12T05:03:42;101376.72;;;12.14;100.00
51229;BME280;37304;52.216;6.874;2023-05-12T05:08:42;101385.28;;;12.22;100.00
51229;BME280;37304;52.216;6.874;2023-05-12T05:13:42;101393.06;;;12.23;100.00
51229;BME280;37304;52.216;6.874;2023-05-12T05:18:43;101396.44;;;12.30;100.00
51229;BME280;37304;52.216;6.874;2023-05-12T05:23:45;101411.16;;;12.34;100.00
51229;BME280;37304;52.216;6.874;2023-05-12T05:28:46;101400.63;;;12.42;100.00
51229;BME280;37304;52.216;6.874;2023-05-12T05:33:47;101415.28;;;12.48;100.00
51229;BME280;37304;52.216;6.874;2023-05-12T05:38:47;101415.34;;;12.45;100.00
51229;BME280;37304;52.216;6.874;2023-05-12T05:43:47;101424.75;;;12.55;100.00
51229;BME280;37304;52.216;6.874;2023-05-12T05:48:48;101420.31;;;12.62;100.00
51229;BME280;37304;52.216;6.874;2023-05-12T05:53:48;101419.25;;;12.72;100.00
51229;BME280;37304;52.216;6.874;2023-05-12T05:58:48;101424.31;;;12.83;100.00
51229;BME280;37304;52.216;6.874;2023-05-12T06:03:49;101426.63;;;13.00;100.00
51229;BME280;37304;52.216;6.874;2023-05-12T06:08:49;101429.81;;;13.18;100.00
51229;BME280;37304;52.216;6.874;2023-05-12T06:13:49;101443.59;;;13.24;100.00
51229;BME280;37304;52.216;6.874;2023-05-12T06:18:50;101444.13;;;13.44;100.00
51229;BME280;37304;52.216;6.874;2023-05-12T06:23:50;101448.28;;;13.56;100.00
51229;BME280;37304;52.216;6.874;2023-05-12T06:28:50;101457.56;;;13.71;100.00
51229;BME280;37304;52.216;6.874;2023-05-12T06:33:51;101454.59;;;13.88;100.00
51229;BME280;37304;52.216;6.874;2023-05-12T06:38:51;101456.16;;;13.98;100.00
51229;BME280;37304;52.216;6.874;2023-05-12T06:43:53;101465.38;;;14.15;100.00
51229;BME280;37304;52.216;6.874;2023-05-12T06:48:53;101456.34;;;14.30;100.00
51229;BME280;37304;52.216;6.874;2023-05-12T06:53:54;101463.91;;;14.42;100.00
51229;BME280;37304;52.216;6.874;2023-05-12T06:58:55;101466.72;;;14.33;100.00
51229;BME280;37304;52.216;6.874;2023-05-12T07:04:00;101469.00;;;14.47;100.00
51229;BME280;37304;52.216;6.874;2023-05-12T07:09:00;101470.41;;;14.63;100.00
51229;BME280;37304;52.216;6.874;2023-05-12T07:14:00;101469.75;;;14.53;100.00
51229;BME280;37304;52.216;6.874;2023-05-12T07:19:01;101474.34;;;14.81;100.00
51229;BME280;37304;52.216;6.874;2023-05-12T07:24:01;101476.81;;;14.88;100.00
51229;BME280;37304;52.216;6.874;2023-05-12T07:29:02;101481.63;;;15.05;100.00
51229;BME280;37304;52.216;6.874;2023-05-12T07:34:03;101482.09;;;15.21;100.00
51229;BME280;37304;52.216;6.874;2023-05-12T07:39:03;101501.59;;;15.43;100.00
51229;BME280;37304;52.216;6.874;2023-05-12T07:44:05;101503.13;;;15.51;100.00
51229;BME280;37304;52.216;6.874;2023-05-12T07:49:05;101499.53;;;15.55;100.00
51229;BME280;37304;52.216;6.874;2023-05-12T07:54:06;101500.78;;;16.06;100.00
51229;BME280;37304;52.216;6.874;2023-05-12T07:59:06;101501.66;;;16.35;100.00
51229;BME280;37304;52.216;6.874;2023-05-12T08:04:07;101508.13;;;16.53;100.00
51229;BME280;37304;52.216;6.874;2023-05-12T08:09:08;101507.09;;;16.59;100.00
51229;BME280;37304;52.216;6.874;2023-05-12T08:14:08;101509.25;;;16.73;100.00
51229;BME280;37304;52.216;6.874;2023-05-12T08:19:08;101514.00;;;16.88;100.00
51229;BME280;37304;52.216;6.874;2023-05-12T08:24:09;101509.00;;;17.09;100.00
51229;BME280;37304;52.216;6.874;2023-05-12T08:29:09;101508.78;;;17.15;100.00
51229;BME280;37304;52.216;6.874;2023-05-12T08:34:10;101509.06;;;17.33;100.00
51229;BME280;37304;52.216;6.874;2023-05-12T08:39:10;101515.41;;;17.27;100.00
51229;BME280;37304;52.216;6.874;2023-05-12T08:44:11;101521.72;;;17.72;100.00
51229;BME280;37304;52.216;6.874;2023-05-12T08:49:15;101522.34;;;18.04;100.00
51229;BME280;37304;52.216;6.874;2023-05-12T08:54:16;101524.41;;;18.66;100.00
51229;BME280;37304;52.216;6.874;2023-05-12T08:59:18;101530.63;;;18.63;100.00
51229;BME280;37304;52.216;6.874;2023-05-12T09:04:19;101530.59;;;19.30;100.00
51229;BME280;37304;52.216;6.874;2023-05-12T09:09:19;101530.72;;;19.48;100.00
51229;BME280;37304;52.216;6.874;2023-05-12T09:14:23;101538.19;;;19.78;100.00
51229;BME280;37304;52.216;6.874;2023-05-12T09:19:24;101530.84;;;20.63;100.00
51229;BME280;37304;52.216;6.874;2023-05-12T09:24:38;101539.28;;;20.52;100.00
51229;BME280;37304;52.216;6.874;2023-05-12T09:29:48;101532.09;;;20.17;100.00
51229;BME280;37304;52.216;6.874;2023-05-12T09:34:50;101530.19;;;19.60;100.00
51229;BME280;37304;52.216;6.874;2023-05-12T09:39:58;101531.84;;;19.42;100.00
51229;BME280;37304;52.216;6.874;2023-05-12T09:45:02;101542.63;;;19.98;100.00
51229;BME280;37304;52.216;6.874;2023-05-12T09:50:04;101538.69;;;19.67;100.00
51229;BME280;37304;52.216;6.874;2023-05-12T09:55:10;101548.03;;;19.95;100.00
51229;BME280;37304;52.216;6.874;2023-05-12T10:00:13;101541.34;;;19.86;100.00
51229;BME280;37304;52.216;6.874;2023-05-12T10:05:15;101541.13;;;19.92;100.00
51229;BME280;37304;52.216;6.874;2023-05-12T10:10:21;101548.47;;;20.62;100.00
51229;BME280;37304;52.216;6.874;2023-05-12T10:15:22;101543.00;;;20.48;100.00
51229;BME280;37304;52.216;6.874;2023-05-12T10:20:26;101542.84;;;20.51;100.00
51229;BME280;37304;52.216;6.874;2023-05-12T10:25:27;101537.41;;;20.54;100.00
51229;BME280;37304;52.216;6.874;2023-05-12T10:30:27;101537.69;;;21.21;100.00
51229;BME280;37304;52.216;6.874;2023-05-12T10:35:32;101539.16;;;20.73;100.00
51229;BME280;37304;52.216;6.874;2023-05-12T10:40:33;101527.50;;;21.14;100.00
51229;BME280;37304;52.216;6.874;2023-05-12T10:45:35;101527.91;;;21.06;100.00
51229;BME280;37304;52.216;6.874;2023-05-12T10:50:36;101530.06;;;22.02;100.00
51229;BME280;37304;52.216;6.874;2023-05-12T10:55:41;101520.63;;;21.62;100.00
51229;BME280;37304;52.216;6.874;2023-05-12T11:00:46;101514.28;;;22.32;100.00
51229;BME280;37304;52.216;6.874;2023-05-12T11:06:02;101513.00;;;22.86;100.00
51229;BME280;37304;52.216;6.874;2023-05-12T11:11:02;101512.00;;;22.89;100.00
51229;BME280;37304;52.216;6.874;2023-05-12T11:16:03;101509.19;;;23.37;100.00
51229;BME280;37304;52.216;6.874;2023-05-12T11:21:13;101512.25;;;23.74;100.00
51229;BME280;37304;52.216;6.874;2023-05-12T11:26:20;101501.63;;;25.91;100.00
51229;BME280;37304;52.216;6.874;2023-05-12T11:31:21;101495.72;;;24.82;93.56
51229;BME280;37304;52.216;6.874;2023-05-12T11:36:21;101496.41;;;25.89;90.29
51229;BME280;37304;52.216;6.874;2023-05-12T11:41:23;101495.81;;;25.47;87.17
51229;BME280;37304;52.216;6.874;2023-05-12T11:46:28;101491.00;;;25.13;85.31
51229;BME280;37304;52.216;6.874;2023-05-12T11:51:28;101489.25;;;24.86;83.05
51229;BME280;37304;52.216;6.874;2023-05-12T11:56:29;101484.00;;;26.87;78.48
51229;BME280;37304;52.216;6.874;2023-05-12T12:01:30;101491.25;;;25.99;74.04
51229;BME280;37304;52.216;6.874;2023-05-12T12:06:42;101500.63;;;25.54;75.00
51229;BME280;37304;52.216;6.874;2023-05-12T12:11:43;101495.94;;;26.45;73.10
51229;BME280;37304;52.216;6.874;2023-05-12T12:16:43;101498.00;;;25.79;72.62
51229;BME280;37304;52.216;6.874;2023-05-12T12:21:43;101487.69;;;25.87;71.17
51229;BME280;37304;52.216;6.874;2023-05-12T12:26:44;101498.34;;;25.74;68.35
51229;BME280;37304;52.216;6.874;2023-05-12T12:31:44;101491.53;;;25.70;68.61
51229;BME280;37304;52.216;6.874;2023-05-12T12:36:44;101496.44;;;26.13;65.31
51229;BME280;37304;52.216;6.874;2023-05-12T12:41:46;101491.19;;;25.87;65.49
51229;BME280;37304;52.216;6.874;2023-05-12T12:46:47;101488.44;;;25.76;64.41
51229;BME280;37304;52.216;6.874;2023-05-12T12:51:47;101486.81;;;25.99;65.25
51229;BME280;37304;52.216;6.874;2023-05-12T12:56:48;101483.34;;;25.47;58.61
51229;BME280;37304;52.216;6.874;2023-05-12T13:01:48;101476.00;;;25.38;55.89
51229;BME280;37304;52.216;6.874;2023-05-12T13:06:48;101479.19;;;26.92;57.02
51229;BME280;37304;52.216;6.874;2023-05-12T13:11:49;101482.91;;;26.16;57.10
51229;BME280;37304;52.216;6.874;2023-05-12T13:16:50;101477.88;;;26.49;55.66
51229;BME280;37304;52.216;6.874;2023-05-12T13:21:51;101462.19;;;26.93;56.10
51229;BME280;37304;52.216;6.874;2023-05-12T13:26:52;101470.78;;;25.62;56.03
51229;BME280;37304;52.216;6.874;2023-05-12T13:31:52;101476.53;;;24.36;60.11
51229;BME280;37304;52.216;6.874;2023-05-12T13:36:53;101482.13;;;23.46;61.63
51229;BME280;37304;52.216;6.874;2023-05-12T13:41:53;101464.94;;;23.23;62.91
51229;BME280;37304;52.216;6.874;2023-05-12T13:46:54;101464.81;;;23.10;65.28
51229;BME280;37304;52.216;6.874;2023-05-12T13:51:54;101462.38;;;23.21;66.48
51229;BME280;37304;52.216;6.874;2023-05-12T13:56:54;101475.88;;;22.72;68.98
51229;BME280;37304;52.216;6.874;2023-05-12T14:01:55;101469.34;;;22.15;72.79
51229;BME280;37304;52.216;6.874;2023-05-12T14:06:55;101471.31;;;21.95;75.23
51229;BME280;37304;52.216;6.874;2023-05-12T14:11:56;101472.16;;;21.95;75.60
51229;BME280;37304;52.216;6.874;2023-05-12T14:16:58;101467.56;;;22.31;74.41
51229;BME280;37304;52.216;6.874;2023-05-12T14:21:58;101456.56;;;22.69;72.97
51229;BME280;37304;52.216;6.874;2023-05-12T14:26:59;101453.03;;;22.54;70.74
51229;BME280;37304;52.216;6.874;2023-05-12T14:31:59;101459.81;;;22.75;71.25
51229;BME280;37304;52.216;6.874;2023-05-12T14:37:01;101471.63;;;23.00;70.06
51229;BME280;37304;52.216;6.874;2023-05-12T14:42:02;101463.56;;;22.71;64.22
51229;BME280;37304;52.216;6.874;2023-05-12T14:47:02;101455.03;;;23.26;56.00
51229;BME280;37304;52.216;6.874;2023-05-12T14:52:03;101462.69;;;23.75;53.93
51229;BME280;37304;52.216;6.874;2023-05-12T14:57:03;101461.53;;;23.79;51.64
51229;BME280;37304;52.216;6.874;2023-05-12T15:02:04;101463.72;;;23.43;50.93
51229;BME280;37304;52.216;6.874;2023-05-12T15:07:04;101469.53;;;22.90;54.12
51229;BME280;37304;52.216;6.874;2023-05-12T15:12:05;101478.13;;;22.47;56.11
51229;BME280;37304;52.216;6.874;2023-05-12T15:17:06;101471.50;;;22.08;58.52
51229;BME280;37304;52.216;6.874;2023-05-12T15:22:06;101480.69;;;22.33;60.21
51229;BME280;37304;52.216;6.874;2023-05-12T15:27:07;101478.81;;;22.97;59.85
51229;BME280;37304;52.216;6.874;2023-05-12T15:32:10;101475.56;;;22.62;59.84
51229;BME280;37304;52.216;6.874;2023-05-12T15:37:11;101470.94;;;22.65;61.58
51229;BME280;37304;52.216;6.874;2023-05-12T15:42:12;101480.28;;;22.24;60.87
51229;BME280;37304;52.216;6.874;2023-05-12T15:47:12;101480.78;;;22.15;62.41
51229;BME280;37304;52.216;6.874;2023-05-12T15:52:12;101474.97;;;22.08;64.27
51229;BME280;37304;52.216;6.874;2023-05-12T15:57:13;101480.09;;;22.11;65.16
51229;BME280;37304;52.216;6.874;2023-05-12T16:02:14;101480.44;;;22.05;66.17
51229;BME280;37304;52.216;6.874;2023-05-12T16:07:14;101477.03;;;22.03;66.85
51229;BME280;37304;52.216;6.874;2023-05-12T16:12:14;101486.81;;;21.69;60.59
51229;BME280;37304;52.216;6.874;2023-05-12T16:17:15;101487.09;;;21.63;61.53
51229;BME280;37304;52.216;6.874;2023-05-12T16:22:16;101481.44;;;21.53;61.40
51229;BME280;37304;52.216;6.874;2023-05-12T16:27:16;101477.63;;;21.25;62.20
51229;BME280;37304;52.216;6.874;2023-05-12T16:32:17;101477.28;;;21.31;62.57
51229;BME280;37304;52.216;6.874;2023-05-12T16:37:17;101481.81;;;21.29;62.87
51229;BME280;37304;52.216;6.874;2023-05-12T16:42:17;101487.81;;;20.98;62.72
51229;BME280;37304;52.216;6.874;2023-05-12T16:47:18;101483.53;;;20.76;62.76
51229;BME280;37304;52.216;6.874;2023-05-12T16:52:18;101498.75;;;20.71;63.49
51229;BME280;37304;52.216;6.874;2023-05-12T16:57:19;101500.88;;;20.64;64.39
51229;BME280;37304;52.216;6.874;2023-05-12T17:02:20;101510.22;;;20.52;64.62
51229;BME280;37304;52.216;6.874;2023-05-12T17:07:20;101506.22;;;20.43;65.55
51229;BME280;37304;52.216;6.874;2023-05-12T17:12:20;101512.81;;;20.34;66.76
51229;BME280;37304;52.216;6.874;2023-05-12T17:17:21;101511.16;;;20.32;67.93
51229;BME280;37304;52.216;6.874;2023-05-12T17:22:21;101524.66;;;20.26;68.20
51229;BME280;37304;52.216;6.874;2023-05-12T17:27:22;101512.75;;;20.17;68.46
51229;BME280;37304;52.216;6.874;2023-05-12T17:32:22;101520.75;;;20.15;69.33
51229;BME280;37304;52.216;6.874;2023-05-12T17:37:23;101516.53;;;20.11;70.83
51229;BME280;37304;52.216;6.874;2023-05-12T17:42:23;101521.22;;;20.04;72.12
51229;BME280;37304;52.216;6.874;2023-05-12T17:47:26;101526.66;;;20.01;73.25
51229;BME280;37304;52.216;6.874;2023-05-12T17:52:27;101535.75;;;19.94;73.55
51229;BME280;37304;52.216;6.874;2023-05-12T17:57:27;101536.63;;;19.95;73.48
51229;BME280;37304;52.216;6.874;2023-05-12T18:02:28;101539.84;;;20.01;72.38
51229;BME280;37304;52.216;6.874;2023-05-12T18:07:30;101541.91;;;19.95;73.30
51229;BME280;37304;52.216;6.874;2023-05-12T18:12:30;101550.97;;;19.87;73.99
51229;BME280;37304;52.216;6.874;2023-05-12T18:17:31;101554.38;;;19.70;74.24
51229;BME280;37304;52.216;6.874;2023-05-12T18:22:32;101557.91;;;19.48;75.33
51229;BME280;37304;52.216;6.874;2023-05-12T18:27:32;101557.75;;;19.32;76.75
51229;BME280;37304;52.216;6.874;2023-05-12T18:32:33;101557.56;;;19.15;78.95
51229;BME280;37304;52.216;6.874;2023-05-12T18:37:33;101570.53;;;18.99;81.09
51229;BME280;37304;52.216;6.874;2023-05-12T18:42:34;101570.19;;;18.84;82.73
51229;BME280;37304;52.216;6.874;2023-05-12T18:47:35;101569.03;;;18.69;84.42
51229;BME280;37304;52.216;6.874;2023-05-12T18:52:35;101572.34;;;18.51;87.40
51229;BME280;37304;52.216;6.874;2023-05-12T18:57:36;101576.56;;;18.32;89.67
51229;BME280;37304;52.216;6.874;2023-05-12T19:02:36;101576.19;;;18.18;91.54
51229;BME280;37304;52.216;6.874;2023-05-12T19:07:36;101589.78;;;18.07;93.32
51229;BME280;37304;52.216;6.874;2023-05-12T19:12:37;101594.63;;;17.93;95.62
51229;BME280;37304;52.216;6.874;2023-05-12T19:17:37;101600.38;;;17.79;97.67
51229;BME280;37304;52.216;6.874;2023-05-12T19:22:38;101608.00;;;17.61;99.84
51229;BME280;37304;52.216;6.874;2023-05-12T19:27:38;101611.78;;;17.52;100.00
51229;BME280;37304;52.216;6.874;2023-05-12T19:32:39;101621.84;;;17.39;100.00
51229;BME280;37304;52.216;6.874;2023-05-12T19:37:41;101633.63;;;17.27;100.00
51229;BME280;37304;52.216;6.874;2023-05-12T19:42:42;101636.38;;;17.23;100.00
51229;BME280;37304;52.216;6.874;2023-05-12T19:47:42;101641.13;;;17.11;100.00
51229;BME280;37304;52.216;6.874;2023-05-12T19:52:43;101642.16;;;17.06;100.00
51229;BME280;37304;52.216;6.874;2023-05-12T19:57:43;101649.53;;;16.93;100.00
51229;BME280;37304;52.216;6.874;2023-05-12T20:02:44;101648.94;;;16.83;100.00
51229;BME280;37304;52.216;6.874;2023-05-12T20:07:44;101658.72;;;16.78;100.00
51229;BME280;37304;52.216;6.874;2023-05-12T20:12:45;101658.03;;;16.71;100.00
51229;BME280;37304;52.216;6.874;2023-05-12T20:17:45;101663.56;;;16.62;100.00
51229;BME280;37304;52.216;6.874;2023-05-12T20:22:45;101666.16;;;16.63;100.00
51229;BME280;37304;52.216;6.874;2023-05-12T20:27:46;101674.25;;;16.55;100.00
51229;BME280;37304;52.216;6.874;2023-05-12T20:32:47;101667.44;;;16.48;100.00
51229;BME280;37304;52.216;6.874;2023-05-12T20:37:48;101674.50;;;16.46;100.00
51229;BME280;37304;52.216;6.874;2023-05-12T20:42:48;101686.00;;;16.42;100.00
51229;BME280;37304;52.216;6.874;2023-05-12T20:47:49;101676.56;;;16.35;100.00
51229;BME280;37304;52.216;6.874;2023-05-12T20:52:49;101684.53;;;16.32;100.00
51229;BME280;37304;52.216;6.874;2023-05-12T20:57:50;101687.31;;;16.25;100.00
51229;BME280;37304;52.216;6.874;2023-05-12T21:02:50;101684.88;;;16.18;100.00
51229;BME280;37304;52.216;6.874;2023-05-12T21:07:51;101691.47;;;15.99;100.00
51229;BME280;37304;52.216;6.874;2023-05-12T21:12:51;101693.44;;;15.91;100.00
51229;BME280;37304;52.216;6.874;2023-05-12T21:17:52;101696.28;;;15.80;100.00
51229;BME280;37304;52.216;6.874;2023-05-12T21:22:53;101700.84;;;15.72;100.00
51229;BME280;37304;52.216;6.874;2023-05-12T21:27:54;101703.53;;;15.70;100.00
51229;BME280;37304;52.216;6.874;2023-05-12T21:32:54;101700.31;;;15.59;100.00
51229;BME280;37304;52.216;6.874;2023-05-12T21:37:55;101705.66;;;15.54;100.00
51229;BME280;37304;52.216;6.874;2023-05-12T21:42:55;101715.41;;;15.48;100.00
51229;BME280;37304;52.216;6.874;2023-05-12T21:47:56;101710.59;;;15.29;100.00
51229;BME280;37304;52.216;6.874;2023-05-12T21:52:56;101706.38;;;15.22;100.00
51229;BME280;37304;52.216;6.874;2023-05-12T21:57:56;101711.06;;;15.07;100.00
51229;BME280;37304;52.216;6.874;2023-05-12T22:02:57;101720.03;;;14.97;100.00
51229;BME280;37304;52.216;6.874;2023-05-12T22:07:58;101727.13;;;14.89;100.00
51229;BME280;37304;52.216;6.874;2023-05-12T22:12:59;101720.31;;;14.81;100.00
51229;BME280;37304;52.216;6.874;2023-05-12T22:18:00;101713.53;;;14.71;100.00
51229;BME280;37304;52.216;6.874;2023-05-12T22:23:00;101726.72;;;14.66;100.00
51229;BME280;37304;52.216;6.874;2023-05-12T22:28:01;101723.38;;;14.58;100.00
51229;BME280;37304;52.216;6.874;2023-05-12T22:33:01;101731.53;;;14.41;100.00
51229;BME280;37304;52.216;6.874;2023-05-12T22:38:02;101733.38;;;14.36;100.00
51229;BME280;37304;52.216;6.874;2023-05-12T22:43:02;101737.00;;;14.27;100.00
51229;BME280;37304;52.216;6.874;2023-05-12T22:48:03;101736.47;;;14.08;100.00
51229;BME280;37304;52.216;6.874;2023-05-12T22:53:03;101729.63;;;14.01;100.00
51229;BME280;37304;52.216;6.874;2023-05-12T22:58:04;101729.78;;;13.91;100.00
51229;BME280;37304;52.216;6.874;2023-05-12T23:03:04;101725.53;;;13.84;100.00
51229;BME280;37304;52.216;6.874;2023-05-12T23:08:06;101733.59;;;13.70;100.00
51229;BME280;37304;52.216;6.874;2023-05-12T23:13:07;101727.50;;;13.69;100.00
51229;BME280;37304;52.216;6.874;2023-05-12T23:18:08;101725.94;;;13.56;100.00
51229;BME280;37304;52.216;6.874;2023-05-12T23:23:08;101731.25;;;13.50;100.00
51229;BME280;37304;52.216;6.874;2023-05-12T23:28:09;101730.50;;;13.43;100.00
51229;BME280;37304;52.216;6.874;2023-05-12T23:33:09;101728.00;;;13.34;100.00
51229;BME280;37304;52.216;6.874;2023-05-12T23:38:10;101722.03;;;13.25;100.00
51229;BME280;37304;52.216;6.874;2023-05-12T23:43:10;101725.66;;;13.12;100.00
51229;BME280;37304;52.216;6.874;2023-05-12T23:48:11;101725.81;;;13.00;100.00
51229;BME280;37304;52.216;6.874;2023-05-12T23:53:11;101716.25;;;13.00;100.00
51229;BME280;37304;52.216;6.874;2023-05-12T23:58:11;101722.53;;;12.84;100.00
